createdAt,value
2019-02-08T00:01:32.397Z,99452.84
2019-02-08T00:04:05.193Z,99459.59
2019-02-08T00:06:38.922Z,99460.77
2019-02-08T00:09:12.134Z,99459.05
2019-02-08T00:11:47.344Z,99460.11
2019-02-08T00:14:20.453Z,99463.81
2019-02-08T00:16:54.375Z,99462.44
2019-02-08T00:19:31.389Z,99460.64
2019-02-08T00:22:07.212Z,99477.59
2019-02-08T00:24:40.143Z,99476.30
2019-02-08T00:27:13.360Z,99468.84
2019-02-08T00:29:46.970Z,99480.11
2019-02-08T00:32:21.640Z,99488.59
2019-02-08T00:34:55.610Z,99477.80
2019-02-08T00:37:29.551Z,99475.97
2019-02-08T00:40:02.145Z,99477.11
2019-02-08T00:42:36.077Z,99476.83
2019-02-08T00:45:10.542Z,99482.00
2019-02-08T00:47:43.752Z,99473.62
2019-02-08T00:50:18.472Z,99469.23
2019-02-08T00:52:51.843Z,99472.94
2019-02-08T00:55:25.398Z,99473.06
2019-02-08T00:57:58.338Z,99488.49
2019-02-08T01:00:31.687Z,99489.84
2019-02-08T01:03:06.654Z,99470.59
2019-02-08T01:05:39.762Z,99492.10
2019-02-08T01:08:13.269Z,99490.29
2019-02-08T01:10:46.765Z,99492.45
2019-02-08T01:13:21.439Z,99481.09
2019-02-08T01:15:56.421Z,99483.63
2019-02-08T01:18:29.692Z,99484.73
2019-02-08T01:21:02.766Z,99492.44
2019-02-08T01:23:41.171Z,99487.95
2019-02-08T01:26:11.627Z,99493.11
2019-02-08T01:28:45.780Z,99494.56
2019-02-08T01:31:19.206Z,99496.70
2019-02-08T01:33:53.145Z,99493.11
2019-02-08T01:36:26.836Z,99494.08
2019-02-08T01:39:04.245Z,99504.06
2019-02-08T01:41:40.332Z,99504.49
2019-02-08T01:44:13.677Z,99501.34
2019-02-08T01:46:47.363Z,99503.37
2019-02-08T01:49:20.875Z,99498.59
2019-02-08T01:51:54.769Z,99508.33
2019-02-08T01:54:28.267Z,99507.66
2019-02-08T01:57:01.778Z,99500.91
2019-02-08T01:59:37.449Z,99509.47
2019-02-08T02:02:14.859Z,99514.84
2019-02-08T02:04:48.871Z,99515.75
2019-02-08T02:07:23.054Z,99507.42
2019-02-08T02:09:57.021Z,99511.38
2019-02-08T02:12:31.245Z,99519.47
2019-02-08T02:15:08.875Z,99514.68
2019-02-08T02:17:43.042Z,99523.93
2019-02-08T02:20:20.772Z,99516.29
2019-02-08T02:22:56.535Z,99511.34
2019-02-08T02:25:30.745Z,99516.95
2019-02-08T02:28:05.127Z,99528.40
2019-02-08T02:30:38.575Z,99525.49
2019-02-08T02:33:13.012Z,99525.28
2019-02-08T02:35:46.098Z,99521.09
2019-02-08T02:38:18.789Z,99522.89
2019-02-08T02:40:52.393Z,99522.78
2019-02-08T02:43:25.791Z,99513.98
2019-02-08T02:45:59.174Z,99521.08
2019-02-08T02:48:32.539Z,99521.63
2019-02-08T02:51:07.190Z,99519.82
2019-02-08T02:53:41.274Z,99523.88
2019-02-08T02:56:14.264Z,99524.78
2019-02-08T02:58:47.254Z,99523.78
2019-02-08T03:01:20.937Z,99527.17
2019-02-08T03:03:53.737Z,99525.69
2019-02-08T03:06:26.435Z,99532.67
2019-02-08T03:09:00.653Z,99532.44
2019-02-08T03:11:34.306Z,99530.37
2019-02-08T03:14:08.005Z,99533.67
2019-02-08T03:16:41.345Z,99535.02
2019-02-08T03:19:14.370Z,99530.16
2019-02-08T03:21:47.408Z,99529.83
2019-02-08T03:24:20.437Z,99535.91
2019-02-08T03:26:53.506Z,99531.28
2019-02-08T03:29:26.691Z,99529.83
2019-02-08T03:31:59.942Z,99533.86
2019-02-08T03:34:33.694Z,99526.77
2019-02-08T03:37:06.936Z,99525.86
2019-02-08T03:39:40.747Z,99531.50
2019-02-08T03:42:14.472Z,99521.25
2019-02-08T03:44:47.736Z,99531.61
2019-02-08T03:47:20.701Z,99527.00
2019-02-08T03:49:54.088Z,99523.63
2019-02-08T03:52:28.850Z,99524.52
2019-02-08T03:55:01.900Z,99518.82
2019-02-08T03:57:35.806Z,99520.72
2019-02-08T04:00:15.557Z,99517.12
2019-02-08T04:02:48.582Z,99526.02
2019-02-08T04:05:22.259Z,99508.38
2019-02-08T04:07:54.869Z,99516.02
2019-02-08T04:10:28.665Z,99515.88
2019-02-08T04:13:01.337Z,99515.75
2019-02-08T04:15:34.728Z,99511.84
2019-02-08T04:18:08.769Z,99509.28
2019-02-08T04:20:43.114Z,99504.08
2019-02-08T04:23:16.950Z,99504.27
2019-02-08T04:25:52.517Z,99504.06
2019-02-08T04:28:26.426Z,99494.97
2019-02-08T04:31:04.528Z,99490.03
2019-02-08T04:33:37.546Z,99501.37
2019-02-08T04:36:11.954Z,99498.02
2019-02-08T04:38:45.324Z,99495.33
2019-02-08T04:41:18.445Z,99514.63
2019-02-08T04:43:51.822Z,99502.08
2019-02-08T04:46:25.232Z,99504.08
2019-02-08T04:48:58.394Z,99502.97
2019-02-08T04:51:31.394Z,99513.88
2019-02-08T04:54:06.025Z,99511.34
2019-02-08T04:56:38.984Z,99508.75
2019-02-08T04:59:11.991Z,99506.95
2019-02-08T05:01:44.778Z,99508.41
2019-02-08T05:04:18.601Z,99501.00
2019-02-08T05:06:52.420Z,99501.91
2019-02-08T05:09:26.308Z,99501.91
2019-02-08T05:11:58.869Z,99503.02
2019-02-08T05:14:31.881Z,99496.50
2019-02-08T05:17:05.958Z,99504.27
2019-02-08T05:19:39.376Z,99498.66
2019-02-08T05:22:12.351Z,99498.22
2019-02-08T05:24:46.183Z,99491.67
2019-02-08T05:27:19.246Z,99488.87
2019-02-08T05:29:53.123Z,99479.41
2019-02-08T05:32:26.146Z,99489.31
2019-02-08T05:34:58.939Z,99480.31
2019-02-08T05:37:32.228Z,99482.81
2019-02-08T05:40:06.589Z,99480.34
2019-02-08T05:42:39.648Z,99489.48
2019-02-08T05:45:13.343Z,99486.98
2019-02-08T05:47:47.460Z,99483.84
2019-02-08T05:50:22.306Z,99477.00
2019-02-08T05:52:56.281Z,99479.83
2019-02-08T05:55:30.678Z,99480.64
2019-02-08T05:58:04.715Z,99485.80
2019-02-08T06:00:50.516Z,99477.49
2019-02-08T06:03:24.200Z,99474.55
2019-02-08T06:05:57.328Z,99475.24
2019-02-08T06:08:30.802Z,99469.41
2019-02-08T06:11:03.641Z,99467.16
2019-02-08T06:13:36.825Z,99465.56
2019-02-08T06:16:09.740Z,99468.05
2019-02-08T06:18:43.268Z,99467.25
2019-02-08T06:21:15.851Z,99468.50
2019-02-08T06:23:48.546Z,99458.36
2019-02-08T06:26:22.013Z,99461.95
2019-02-08T06:28:55.583Z,99464.91
2019-02-08T06:31:28.900Z,99455.87
2019-02-08T06:34:01.906Z,99454.31
2019-02-08T06:36:36.314Z,99457.70
2019-02-08T06:39:09.299Z,99452.87
2019-02-08T06:41:44.254Z,99451.78
2019-02-08T06:44:21.706Z,99460.22
2019-02-08T06:46:57.026Z,99465.20
2019-02-08T06:49:35.001Z,99449.58
2019-02-08T06:52:16.683Z,99456.88
2019-02-08T06:54:58.367Z,99462.05
2019-02-08T06:58:01.646Z,99467.69
2019-02-08T07:00:57.513Z,99461.61
2019-02-08T07:03:57.217Z,99465.89
2019-02-08T07:06:55.337Z,99475.11
2019-02-08T07:09:51.354Z,99462.63
2019-02-08T07:12:49.665Z,99464.33
2019-02-08T07:15:47.670Z,99453.09
2019-02-08T07:18:47.935Z,99464.33
2019-02-08T07:21:52.103Z,99463.95
2019-02-08T07:24:54.044Z,99473.08
2019-02-08T07:27:39.827Z,99479.48
2019-02-08T07:30:35.038Z,99486.31
2019-02-08T07:33:36.508Z,99489.47
2019-02-08T07:36:39.304Z,99482.04
2019-02-08T07:39:30.335Z,99484.39
2019-02-08T07:42:26.993Z,99488.88
2019-02-08T07:45:08.525Z,99476.64
2019-02-08T07:47:58.265Z,99479.10
2019-02-08T07:50:39.611Z,99477.75
2019-02-08T07:53:30.524Z,99489.78
2019-02-08T07:56:29.635Z,99478.19
2019-02-08T07:59:21.655Z,99479.75
2019-02-08T08:02:23.987Z,99479.64
2019-02-08T08:05:13.836Z,99469.06
2019-02-08T08:08:07.856Z,99473.55
2019-02-08T08:11:07.487Z,99479.94
2019-02-08T08:14:07.223Z,99481.74
2019-02-08T08:17:23.094Z,99479.95
2019-02-08T08:20:26.499Z,99479.39
2019-02-08T08:23:19.663Z,99479.94
2019-02-08T08:26:19.259Z,99480.84
2019-02-08T08:29:15.127Z,99485.13
2019-02-08T08:32:06.620Z,99471.59
2019-02-08T08:35:05.007Z,99469.89
2019-02-08T08:46:15.739Z,99468.18
2019-02-08T08:49:49.217Z,99453.32
2019-02-08T08:52:51.697Z,99455.39
2019-02-08T08:56:15.031Z,99457.92
2019-02-08T08:59:36.100Z,99460.23
2019-02-08T09:03:17.671Z,99451.86
2019-02-08T09:06:56.305Z,99449.02
2019-02-08T09:10:13.210Z,99452.48
2019-02-08T09:18:03.830Z,99457.91
2019-02-08T09:21:16.727Z,99454.14
2019-02-08T09:24:43.223Z,99454.11
2019-02-08T09:28:06.495Z,99450.66
2019-02-08T09:31:15.680Z,99452.05
2019-02-08T09:34:35.615Z,99448.55
2019-02-08T09:37:42.226Z,99445.72
2019-02-08T09:41:06.190Z,99444.73
2019-02-08T09:44:16.579Z,99446.70
2019-02-08T09:47:36.442Z,99442.78
2019-02-08T09:50:59.141Z,99430.44
2019-02-08T09:54:13.377Z,99420.95
2019-02-08T09:57:24.261Z,99417.92
2019-02-08T10:01:06.658Z,99422.11
2019-02-08T10:04:28.728Z,99427.59
2019-02-08T10:07:28.923Z,99439.26
2019-02-08T10:10:39.483Z,99439.20
2019-02-08T10:14:14.651Z,99437.92
2019-02-08T10:17:37.001Z,99427.55
2019-02-08T10:20:56.594Z,99422.22
2019-02-08T10:24:25.586Z,99428.06
2019-02-08T10:27:44.003Z,99426.11
2019-02-08T10:31:17.127Z,99424.25
2019-02-08T10:34:55.728Z,99426.95
2019-02-08T10:38:24.107Z,99431.52
2019-02-08T10:41:33.579Z,99402.88
2019-02-08T10:44:46.475Z,99408.56
2019-02-08T10:47:53.497Z,99411.72
2019-02-08T10:51:13.073Z,99412.50
2019-02-08T10:54:40.429Z,99410.09
2019-02-08T10:58:01.031Z,99405.55
2019-02-08T11:01:06.852Z,99404.70
2019-02-08T11:04:19.368Z,99399.65
2019-02-08T11:07:35.745Z,99399.22
2019-02-08T11:10:39.503Z,99400.98
2019-02-08T11:13:50.094Z,99392.59
2019-02-08T11:16:53.389Z,99388.67
2019-02-08T11:19:25.059Z,99388.30
2019-02-08T11:21:58.947Z,99369.72
2019-02-08T11:24:32.457Z,99375.00
2019-02-08T11:27:05.730Z,99376.41
2019-02-08T11:29:38.646Z,99377.61
2019-02-08T11:32:11.714Z,99377.45
2019-02-08T11:34:44.641Z,99364.62
2019-02-08T11:37:17.890Z,99361.72
2019-02-08T11:39:50.578Z,99364.62
2019-02-08T11:42:24.202Z,99362.34
2019-02-08T11:44:59.050Z,99365.28
2019-02-08T11:47:31.988Z,99366.63
2019-02-08T11:50:06.738Z,99344.04
2019-02-08T11:52:39.873Z,99350.73
2019-02-08T11:55:12.834Z,99353.70
2019-02-08T11:57:46.279Z,99333.89
2019-02-08T12:00:30.156Z,99329.80
2019-02-08T12:03:04.707Z,99330.31
2019-02-08T12:05:38.673Z,99324.75
2019-02-08T12:08:12.670Z,99324.36
2019-02-08T12:10:45.264Z,99311.62
2019-02-08T12:13:17.882Z,99318.22
2019-02-08T12:15:50.935Z,99310.43
2019-02-08T12:18:24.360Z,99313.39
2019-02-08T12:20:57.461Z,99304.64
2019-02-08T12:23:30.410Z,99299.53
2019-02-08T12:26:03.417Z,99289.15
2019-02-08T12:28:36.925Z,99274.50
2019-02-08T12:31:13.091Z,99286.59
2019-02-08T12:33:46.901Z,99282.11
2019-02-08T12:36:20.488Z,99282.34
2019-02-08T12:38:54.210Z,99272.30
2019-02-08T12:41:27.667Z,99273.15
2019-02-08T12:44:00.661Z,99260.91
2019-02-08T12:46:33.702Z,99256.69
2019-02-08T12:49:06.789Z,99261.08
2019-02-08T12:51:41.287Z,99262.63
2019-02-08T12:54:15.038Z,99244.48
2019-02-08T12:56:48.155Z,99258.79
2019-02-08T12:59:20.769Z,99254.30
2019-02-08T13:01:53.703Z,99239.59
2019-02-08T13:04:26.499Z,99250.11
2019-02-08T13:06:59.899Z,99255.33
2019-02-08T13:09:33.129Z,99242.39
2019-02-08T13:12:06.091Z,99232.46
2019-02-08T13:14:39.591Z,99236.64
2019-02-08T13:17:12.842Z,99219.06
2019-02-08T13:19:46.105Z,99217.81
2019-02-08T13:22:19.167Z,99218.14
2019-02-08T13:24:53.021Z,99211.36
2019-02-08T13:27:26.652Z,99200.30
2019-02-08T13:29:59.322Z,99209.88
2019-02-08T13:32:32.406Z,99201.97
2019-02-08T13:35:06.097Z,99182.81
2019-02-08T13:37:39.639Z,99193.96
2019-02-08T13:40:13.062Z,99186.53
2019-02-08T13:42:46.529Z,99181.39
2019-02-08T13:45:19.883Z,99189.33
2019-02-08T13:47:53.606Z,99187.75
2019-02-08T13:50:28.699Z,99191.45
2019-02-08T13:53:01.528Z,99175.14
2019-02-08T13:55:38.043Z,99180.41
2019-02-08T13:58:11.921Z,99170.51
2019-02-08T14:00:45.347Z,99159.89
2019-02-08T14:03:18.727Z,99165.54
2019-02-08T14:05:54.594Z,99164.98
2019-02-08T14:08:29.208Z,99172.09
2019-02-08T14:11:02.317Z,99153.19
2019-02-08T14:13:40.377Z,99173.48
2019-02-08T14:16:11.160Z,99151.65
2019-02-08T14:18:47.149Z,99147.36
2019-02-08T14:21:20.940Z,99160.64
2019-02-08T14:23:53.806Z,99161.17
2019-02-08T14:26:30.093Z,99132.78
2019-02-08T14:29:02.754Z,99138.50
2019-02-08T14:31:37.496Z,99136.25
2019-02-08T14:34:10.237Z,99128.08
2019-02-08T14:36:43.738Z,99139.10
2019-02-08T14:39:17.587Z,99122.66
2019-02-08T14:41:52.717Z,99123.22
2019-02-08T14:44:25.398Z,99119.04
2019-02-08T14:46:58.475Z,99115.16
2019-02-08T14:49:33.800Z,99097.70
2019-02-08T14:52:07.465Z,99101.84
2019-02-08T14:54:41.421Z,99087.05
2019-02-08T14:57:16.667Z,99103.72
2019-02-08T14:59:50.021Z,99087.42
2019-02-08T15:02:23.568Z,99079.61
2019-02-08T15:04:56.259Z,99085.16
2019-02-08T15:07:29.840Z,99080.08
2019-02-08T15:10:05.163Z,99071.95
2019-02-08T15:12:37.891Z,99060.34
2019-02-08T15:15:12.362Z,99057.98
2019-02-08T15:17:45.563Z,99064.95
2019-02-08T15:20:21.260Z,99077.94
2019-02-08T15:22:54.897Z,99081.39
2019-02-08T15:25:28.445Z,99043.86
2019-02-08T15:28:01.596Z,99047.55
2019-02-08T15:30:35.832Z,99040.55
2019-02-08T15:33:09.869Z,99028.95
2019-02-08T15:35:42.638Z,99023.31
2019-02-08T15:38:15.350Z,99035.32
2019-02-08T15:40:51.465Z,99030.05
